Time;durP1;ratioP1;P1;durP2;ratioP2;P2;SDS_P1;SDS_P2;PMS_P1;PMS_P2;Temp;Humidity;BMP_temperature;BMP_pressure;BME280_temperature;BME280_humidity;BME280_pressure;Samples;Min_cycle;Max_cycle;Signal;HPM_P1;HPM_P2
2022/07/08 00:00:59;;;;;;;1999.90;999.90;;;;;;;13.13;75.51;100510.06;8275421;28;20046;-77
2022/07/08 00:05:00;;;;;;;1999.90;999.90;;;;;;;13.06;76.28;100518.72;8269940;28;20336;-77
2022/07/08 00:09:02;;;;;;;1999.90;999.90;;;;;;;13.07;76.06;100515.25;8271281;28;20065;-78
2022/07/08 00:13:04;;;;;;;1999.90;999.90;;;;;;;13.09;76.34;100517.00;8256744;28;20050;-77
2022/07/08 00:17:05;;;;;;;1999.90;999.90;;;;;;;13.12;76.35;100518.75;8270652;28;20096;-77
2022/07/08 00:21:07;;;;;;;1999.90;999.90;;;;;;;13.12;75.66;100517.03;8290494;28;20141;-77
2022/07/08 00:25:09;;;;;;;1999.90;999.90;;;;;;;13.06;75.33;100522.19;8287255;28;20119;-77
2022/07/08 00:29:11;;;;;;;1999.90;999.90;;;;;;;12.95;76.27;100522.19;8274773;28;20042;-78
2022/07/08 00:33:12;;;;;;;1999.90;999.90;;;;;;;12.76;77.11;100516.88;8276882;28;20057;-78
2022/07/08 00:37:13;;;;;;;1999.90;999.90;;;;;;;12.65;77.75;100515.06;8259261;28;20311;-77
2022/07/08 00:41:15;;;;;;;1999.90;999.90;;;;;;;12.58;77.68;100517.66;8300643;28;20057;-78
2022/07/08 00:45:17;;;;;;;1999.90;999.90;;;;;;;12.48;77.86;100521.94;8289743;28;20069;-77
2022/07/08 00:49:19;;;;;;;1999.90;999.90;;;;;;;12.48;77.93;100519.31;8293771;28;20251;-77
2022/07/08 00:53:22;;;;;;;1999.90;999.90;;;;;;;12.46;78.04;100521.06;8293125;28;20061;-77
2022/07/08 00:57:25;;;;;;;1999.90;999.90;;;;;;;12.37;78.54;100531.41;8292763;28;20299;-77
2022/07/08 01:01:26;;;;;;;1999.90;999.90;;;;;;;12.31;78.03;100521.81;8296416;28;20141;-77
2022/07/08 01:05:28;;;;;;;1999.90;999.90;;;;;;;12.31;78.76;100520.94;8295450;28;20045;-77
2022/07/08 01:09:30;;;;;;;1999.90;999.90;;;;;;;12.25;78.68;100529.59;8297065;28;20120;-77
2022/07/08 01:13:32;;;;;;;1999.90;999.90;;;;;;;12.20;79.10;100530.41;8276716;28;20058;-78
2022/07/08 01:17:41;;;;;;;1999.90;999.90;;;;;;;12.15;78.96;100535.59;8270758;28;20132;-78
2022/07/08 01:21:44;;;;;;;1999.90;999.90;;;;;;;12.04;79.01;100543.34;8276464;28;20042;-77
2022/07/08 01:25:46;;;;;;;;;;;;;;;11.96;79.91;100550.19;8271261;28;20129;-77
2022/07/08 01:29:47;;;;;;;1999.90;999.90;;;;;;;11.91;80.42;100553.63;8275553;28;19925;-77
2022/07/08 01:33:49;;;;;;;1999.90;999.90;;;;;;;11.86;80.32;100545.78;8285083;28;20144;-77
2022/07/08 01:37:50;;;;;;;1999.90;999.90;;;;;;;11.85;80.81;100548.34;8256330;28;20080;-77
2022/07/08 01:41:51;;;;;;;1999.90;999.90;;;;;;;11.90;80.63;100551.88;8260990;28;20152;-77
2022/07/08 01:45:53;;;;;;;1999.90;999.90;;;;;;;11.95;79.82;100551.06;8278251;28;20080;-78
2022/07/08 01:49:55;;;;;;;1999.90;999.90;;;;;;;12.00;80.09;100554.56;8275542;28;20121;-77
2022/07/08 01:53:56;;;;;;;1999.90;999.90;;;;;;;12.01;80.07;100556.28;8270713;28;20053;-77
2022/07/08 01:57:58;;;;;;;1999.90;999.90;;;;;;;11.94;80.31;100545.84;8273987;28;20046;-77
2022/07/08 02:01:59;;;;;;;1999.90;999.90;;;;;;;11.89;80.08;100555.34;8279936;28;20636;-76
2022/07/08 02:06:01;;;;;;;1999.90;999.90;;;;;;;11.82;79.96;100559.59;8284036;28;20445;-77
2022/07/08 02:10:03;;;;;;;1999.90;999.90;;;;;;;11.76;80.17;100569.94;8275708;28;20061;-77
2022/07/08 02:14:04;;;;;;;1999.90;999.90;;;;;;;11.70;79.79;100565.53;8278700;28;20417;-77
2022/07/08 02:18:06;;;;;;;1999.90;999.90;;;;;;;11.66;80.20;100568.06;8282891;28;20132;-77
2022/07/08 02:22:09;;;;;;;1999.90;999.90;;;;;;;11.61;80.38;100560.22;8286581;28;20046;-77
2022/07/08 02:26:10;;;;;;;;;;;;;;;11.58;80.82;100554.13;8265571;28;20611;-77
2022/07/08 02:30:12;;;;;;;1999.90;999.90;;;;;;;11.53;81.04;100553.22;8291543;28;19925;-77
2022/07/08 02:34:13;;;;;;;1999.90;999.90;;;;;;;11.42;81.11;100560.91;8280553;28;20129;-76
2022/07/08 02:38:15;;;;;;;1999.90;999.90;;;;;;;11.30;81.28;100563.34;8283342;28;20386;-77
2022/07/08 02:42:16;;;;;;;1999.90;999.90;;;;;;;11.23;81.71;100564.16;8278178;28;20386;-77
2022/07/08 02:46:18;;;;;;;1999.90;999.90;;;;;;;11.14;82.08;100562.31;8283238;28;20158;-77
2022/07/08 02:50:19;;;;;;;1999.90;999.90;;;;;;;10.97;82.51;100562.13;8285401;28;20548;-77
2022/07/08 02:54:21;;;;;;;1999.90;999.90;;;;;;;10.89;82.56;100564.59;8276917;28;20049;-77
2022/07/08 02:58:23;;;;;;;1999.90;999.90;;;;;;;10.85;83.09;100568.00;8280203;28;20038;-77
2022/07/08 03:02:24;;;;;;;1999.90;999.90;;;;;;;10.75;83.27;100566.13;8272724;28;20390;-77
2022/07/08 03:06:26;;;;;;;1999.90;999.90;;;;;;;10.68;83.62;100571.22;8283455;28;20299;-77
2022/07/08 03:10:27;;;;;;;1999.90;999.90;;;;;;;10.67;83.66;100565.16;8278440;28;20073;-77
2022/07/08 03:14:29;;;;;;;1999.90;999.90;;;;;;;10.66;83.20;100568.63;8282490;28;20050;-77
2022/07/08 03:18:34;;;;;;;1999.90;999.90;;;;;;;10.62;82.97;100563.38;8268739;28;20133;-77
2022/07/08 03:22:36;;;;;;;1999.90;999.90;;;;;;;10.56;81.96;100571.91;8277001;28;20072;-77
2022/07/08 03:26:37;;;;;;;1999.90;999.90;;;;;;;10.46;82.94;100568.34;8277631;28;20150;-77
2022/07/08 03:30:39;;;;;;;1999.90;999.90;;;;;;;10.41;83.20;100576.88;8264333;28;20074;-77
2022/07/08 03:34:41;;;;;;;1999.90;999.90;;;;;;;10.35;82.98;100582.00;8282850;28;20112;-77
2022/07/08 03:38:43;;;;;;;1999.90;999.90;;;;;;;10.19;83.36;100581.72;8270720;28;20140;-77
2022/07/08 03:42:44;;;;;;;1999.90;999.90;;;;;;;10.13;84.75;100594.59;8272407;28;20334;-77
2022/07/08 03:46:46;;;;;;;1999.90;999.90;;;;;;;10.14;85.09;100595.47;8259621;28;20125;-77
2022/07/08 03:50:47;;;;;;;1999.90;999.90;;;;;;;10.20;85.06;100609.41;8275900;28;20141;-77
2022/07/08 03:54:49;;;;;;;1999.90;999.90;;;;;;;10.18;84.65;100620.63;8276430;28;20441;-77
2022/07/08 03:58:50;;;;;;;1999.90;999.90;;;;;;;10.11;84.93;100618.78;8289569;28;20157;-77
2022/07/08 04:02:52;;;;;;;1999.90;999.90;;;;;;;10.06;85.11;100629.09;8252532;28;20354;-77
2022/07/08 04:06:54;;;;;;;1999.90;999.90;;;;;;;10.01;85.85;100622.91;8279660;28;20112;-77
2022/07/08 04:10:55;;;;;;;1999.90;999.90;;;;;;;9.98;85.62;100625.47;8274577;28;20351;-77
2022/07/08 04:14:57;;;;;;;1999.90;999.90;;;;;;;9.96;86.17;100634.94;8273791;28;20077;-77
2022/07/08 04:18:58;;;;;;;1999.90;999.90;;;;;;;10.02;86.06;100641.94;8297716;28;20555;-77
2022/07/08 04:23:00;;;;;;;1999.90;999.90;;;;;;;10.11;86.63;100642.13;8283261;28;20397;-77
2022/07/08 04:27:02;;;;;;;1999.90;999.90;;;;;;;10.24;86.03;100649.31;8269502;28;20153;-77
2022/07/08 04:31:04;;;;;;;1999.90;999.90;;;;;;;10.33;85.14;100649.47;8284962;28;20065;-77
2022/07/08 04:35:06;;;;;;;1999.90;999.90;;;;;;;10.34;85.62;100637.34;8286974;28;20493;-77
2022/07/08 04:39:07;;;;;;;1999.90;999.90;;;;;;;10.44;85.77;100647.06;8272216;28;20042;-77
2022/07/08 04:43:09;;;;;;;1999.90;999.90;;;;;;;10.62;84.25;100652.53;8255330;28;20559;-77
2022/07/08 04:47:10;;;;;;;1999.90;999.90;;;;;;;10.75;83.74;100662.25;8257252;28;20523;-77
2022/07/08 04:51:12;;;;;;;1999.90;999.90;;;;;;;10.88;83.38;100660.72;8275242;28;20125;-77
2022/07/08 04:55:32;;;;;;;1999.90;999.90;;;;;;;11.03;83.24;100660.06;8275692;28;20410;-77
2022/07/08 04:59:34;;;;;;;1999.90;999.90;;;;;;;11.21;82.80;100670.72;8270856;28;20144;-76
2022/07/08 05:03:35;;;;;;;1999.90;999.90;;;;;;;11.39;82.04;100673.56;8283466;28;20060;-77
2022/07/08 05:07:37;;;;;;;1999.90;999.90;;;;;;;11.55;82.08;100678.97;8283552;28;20052;-77
2022/07/08 05:11:39;;;;;;;1999.90;999.90;;;;;;;11.77;80.83;100687.03;8253980;28;20065;-76
2022/07/08 05:15:41;;;;;;;1999.90;999.90;;;;;;;12.02;79.96;100687.31;8257483;28;20061;-77
2022/07/08 05:19:42;;;;;;;1999.90;999.90;;;;;;;12.28;79.43;100692.81;8274389;28;20070;-77
2022/07/08 05:23:43;;;;;;;1999.90;999.90;;;;;;;12.55;78.99;100684.34;8265655;28;20125;-77
2022/07/08 05:27:45;;;;;;;1999.90;999.90;;;;;;;12.83;77.53;100686.31;8276212;28;20057;-77
2022/07/08 05:31:47;;;;;;;1999.90;999.90;;;;;;;13.11;76.25;100684.78;8276196;28;20477;-77
2022/07/08 05:35:48;;;;;;;1999.90;999.90;;;;;;;13.36;75.93;100688.44;8274482;28;20053;-76
2022/07/08 05:39:50;;;;;;;1999.90;999.90;;;;;;;13.65;74.63;100690.31;8281274;28;20396;-77
2022/07/08 05:43:51;;;;;;;1999.90;999.90;;;;;;;13.98;74.27;100681.69;8283529;28;20414;-78
2022/07/08 05:47:52;;;;;;;1999.90;999.90;;;;;;;14.30;72.24;100685.25;8276486;28;20871;-78
2022/07/08 05:51:54;;;;;;;1999.90;999.90;;;;;;;14.92;69.93;100680.94;8267428;28;20723;-78
2022/07/08 05:55:56;;;;;;;1999.90;999.90;;;;;;;15.59;66.84;100686.84;8282029;28;20424;-78
2022/07/08 05:59:57;;;;;;;1999.90;999.90;;;;;;;16.00;64.49;100689.28;8287146;28;20076;-78
2022/07/08 06:03:59;;;;;;;1999.90;999.90;;;;;;;16.49;61.97;100690.69;8259157;28;20202;-78
2022/07/08 06:08:00;;;;;;;1999.90;999.90;;;;;;;16.92;60.16;100699.13;8276449;28;20477;-78
2022/07/08 06:12:03;;;;;;;1999.90;999.90;;;;;;;17.22;59.07;100703.19;8283422;28;20042;-79
2022/07/08 06:16:05;;;;;;;1999.90;999.90;;;;;;;17.70;57.23;100708.81;8292668;28;20073;-78
2022/07/08 06:20:07;;;;;;;;;;;;;;;17.96;56.93;100709.34;8302759;28;20038;-78
2022/07/08 06:24:09;;;;;;;1999.90;999.90;;;;;;;18.47;54.35;100705.97;8272128;28;19925;-78
2022/07/08 06:28:11;;;;;;;1999.90;999.90;;;;;;;18.86;52.36;100707.13;8283314;28;20052;-78
2022/07/08 06:32:14;;;;;;;1999.90;999.90;;;;;;;19.44;51.00;100712.19;8284544;28;20122;-78
2022/07/08 06:36:16;;;;;;;1999.90;999.90;;;;;;;19.99;49.61;100712.84;8279958;28;20074;-78
2022/07/08 06:40:19;;;;;;;1999.90;999.90;;;;;;;20.26;47.98;100714.84;8276383;28;20038;-78
2022/07/08 06:44:21;;;;;;;1999.90;999.90;;;;;;;20.30;46.05;100716.53;8286431;28;20128;-79
2022/07/08 06:48:22;;;;;;;1999.90;999.90;;;;;;;20.39;45.92;100726.00;8285826;28;20069;-78
2022/07/08 06:52:24;;;;;;;1999.90;999.90;;;;;;;20.35;45.70;100717.28;8284661;28;20069;-79
2022/07/08 06:56:26;;;;;;;1999.90;999.90;;;;;;;20.06;45.79;100715.31;8289656;28;20124;-80
2022/07/08 07:00:27;;;;;;;1999.90;999.90;;;;;;;20.11;45.22;100710.81;8286956;28;20073;-79
2022/07/08 07:04:29;;;;;;;1999.90;999.90;;;;;;;20.36;44.41;100707.63;8295482;28;20061;-79
2022/07/08 07:08:31;;;;;;;1999.90;999.90;;;;;;;20.51;43.92;100708.16;8266452;28;20065;-80
2022/07/08 07:12:33;;;;;;;;;;;;;;;20.83;43.53;100710.91;8283514;28;20046;-80
2022/07/08 07:16:34;;;;;;;1999.90;999.90;;;;;;;21.02;42.53;100715.69;8289426;28;20011;-79
2022/07/08 07:20:36;;;;;;;1999.90;999.90;;;;;;;21.24;41.81;100717.75;8279449;28;20520;-79
2022/07/08 07:24:37;;;;;;;1999.90;999.90;;;;;;;20.98;42.10;100721.91;8276436;28;20053;-78
2022/07/08 07:28:39;;;;;;;1999.90;999.90;;;;;;;21.24;41.53;100715.09;8291310;28;20042;-79
2022/07/08 07:32:40;;;;;;;1999.90;999.90;;;;;;;21.35;41.27;100729.78;8286004;28;20056;-79
2022/07/08 07:36:42;;;;;;;1999.90;999.90;;;;;;;21.51;40.82;100724.06;8288472;28;20142;-79
2022/07/08 07:40:43;;;;;;;1999.90;999.90;;;;;;;21.76;39.61;100714.53;8292147;28;20041;-78
2022/07/08 07:44:45;;;;;;;1999.90;999.90;;;;;;;21.74;40.04;100716.38;8277070;28;20164;-79
2022/07/08 07:48:46;;;;;;;1999.90;999.90;;;;;;;21.85;40.66;100713.38;8281984;28;20042;-78
2022/07/08 07:52:48;;;;;;;1999.90;999.90;;;;;;;22.09;40.58;100712.72;8285554;28;20048;-78
2022/07/08 07:56:49;;;;;;;1999.90;999.90;;;;;;;22.05;39.81;100711.03;8274306;28;20421;-78
2022/07/08 08:00:52;;;;;;;1999.90;999.90;;;;;;;22.20;39.38;100710.56;8258763;28;20121;-78
2022/07/08 08:04:54;;;;;;;1999.90;999.90;;;;;;;22.25;39.58;100707.78;8283422;28;20108;-77
2022/07/08 08:08:56;;;;;;;1999.90;999.90;;;;;;;21.86;38.63;100701.91;8280759;28;20121;-78
2022/07/08 08:12:57;;;;;;;1999.90;999.90;;;;;;;21.93;39.42;100703.47;8283567;28;20042;-77
2022/07/08 08:16:59;;;;;;;1999.90;999.90;;;;;;;22.31;40.96;100708.47;8285213;28;20421;-78
2022/07/08 08:21:00;;;;;;;1999.90;999.90;;;;;;;22.10;38.17;100711.78;8274026;28;20041;-78
2022/07/08 08:25:02;;;;;;;1999.90;999.90;;;;;;;22.30;40.02;100709.38;8282622;28;20122;-78
2022/07/08 08:29:04;;;;;;;1999.90;999.90;;;;;;;22.58;39.00;100708.50;8287488;28;20041;-78
2022/07/08 08:33:06;;;;;;;1999.90;999.90;;;;;;;22.77;38.58;100701.66;8273563;28;20070;-78
2022/07/08 08:37:07;;;;;;;1999.90;999.90;;;;;;;23.06;38.06;100703.38;8272216;28;20049;-79
2022/07/08 08:41:10;;;;;;;1999.90;999.90;;;;;;;23.18;37.39;100697.63;8274917;28;20034;-78
2022/07/08 08:45:11;;;;;;;1999.90;999.90;;;;;;;23.06;36.93;100691.91;8273581;28;20485;-77
2022/07/08 08:49:16;;;;;;;1999.90;999.90;;;;;;;23.11;36.98;100688.16;8259010;28;20133;-77
2022/07/08 08:53:24;;;;;;;1999.90;999.90;;;;;;;23.16;36.21;100683.59;8286521;28;20690;-77
2022/07/08 08:57:25;;;;;;;1999.90;999.90;;;;;;;23.37;36.29;100675.78;8283842;28;20097;-78
2022/07/08 09:01:30;;;;;;;1999.90;999.90;;;;;;;23.41;37.04;100682.69;8296898;28;20599;-77
2022/07/08 09:05:39;;;;;;;1999.90;999.90;;;;;;;23.61;36.98;100680.19;8285180;28;20050;-78
2022/07/08 09:09:41;;;;;;;1999.90;999.90;;;;;;;23.55;36.48;100675.09;8284776;28;20054;-77
2022/07/08 09:13:42;;;;;;;1999.90;999.90;;;;;;;23.74;36.15;100676.16;8295716;28;20404;-77
2022/07/08 09:17:44;;;;;;;;;;;;;;;23.79;36.74;100678.63;8278822;28;20052;-77
2022/07/08 09:21:52;;;;;;;1999.90;999.90;;;;;;;23.88;35.00;100680.94;8279515;28;20558;-78
2022/07/08 09:25:56;;;;;;;1999.90;999.90;;;;;;;23.68;36.43;100676.38;8300218;28;20072;-77
2022/07/08 09:30:00;;;;;;;1999.90;999.90;;;;;;;23.89;36.95;100674.72;8291447;28;20057;-78
2022/07/08 09:34:09;;;;;;;1999.90;999.90;;;;;;;23.87;35.69;100675.69;8274605;28;20050;-78
2022/07/08 09:38:10;;;;;;;1999.90;999.90;;;;;;;23.96;36.33;100670.88;8290259;28;20311;-77
2022/07/08 09:42:14;;;;;;;1999.90;999.90;;;;;;;23.74;35.47;100659.38;8295802;28;20045;-76
2022/07/08 09:46:16;;;;;;;1999.90;999.90;;;;;;;23.77;35.98;100672.53;8306108;28;20045;-77
2022/07/08 09:50:18;;;;;;;1999.90;999.90;;;;;;;23.60;36.11;100675.81;8301062;28;20088;-76
2022/07/08 09:54:40;;;;;;;1999.90;999.90;;;;;;;23.67;36.66;100676.44;8282251;28;20050;-77
2022/07/08 09:58:42;;;;;;;1999.90;999.90;;;;;;;23.60;35.20;100677.59;8260087;28;20088;-78
2022/07/08 10:02:44;;;;;;;1999.90;999.90;;;;;;;23.77;36.66;100677.84;8270232;28;20716;-77
2022/07/08 10:06:46;;;;;;;1999.90;999.90;;;;;;;23.95;36.06;100674.47;8265143;28;20054;-78
2022/07/08 10:10:51;;;;;;;1999.90;999.90;;;;;;;23.94;35.42;100683.34;8247452;28;20153;-77
2022/07/08 10:14:55;;;;;;;1999.90;999.90;;;;;;;23.91;36.17;100669.34;8267816;28;20444;-77
2022/07/08 10:18:57;;;;;;;1999.90;999.90;;;;;;;23.91;35.95;100677.31;8273689;28;20050;-76
2022/07/08 10:23:01;;;;;;;1999.90;999.90;;;;;;;23.96;35.86;100667.38;8262758;28;20042;-77
2022/07/08 10:27:04;;;;;;;1999.90;999.90;;;;;;;24.11;35.65;100664.13;8254000;28;20645;-77
2022/07/08 10:31:20;;;;;;;1999.90;999.90;;;;;;;24.45;35.56;100668.97;8261409;28;20038;-77
2022/07/08 10:35:22;;;;;;;1999.90;999.90;;;;;;;24.59;34.99;100671.88;8277355;28;20124;-77
2022/07/08 10:39:38;;;;;;;1999.90;999.90;;;;;;;24.49;34.52;100673.22;8272763;28;20768;-77
2022/07/08 10:43:53;;;;;;;1999.90;999.90;;;;;;;24.32;34.26;100668.59;8271137;28;20064;-77
2022/07/08 10:48:08;;;;;;;1999.90;999.90;;;;;;;23.65;34.40;100667.69;8274051;28;20041;-77
2022/07/08 10:52:09;;;;;;;1999.90;999.90;;;;;;;23.73;35.72;100661.19;8271361;28;20133;-77
2022/07/08 10:56:11;;;;;;;1999.90;999.90;;;;;;;23.87;35.08;100659.75;8270878;28;20127;-77
2022/07/08 11:00:14;;;;;;;1999.90;999.90;;;;;;;24.20;35.23;100655.78;8266596;28;20149;-77
2022/07/08 11:04:26;;;;;;;1999.90;999.90;;;;;;;24.53;35.51;100658.00;8279006;28;20129;-77
2022/07/08 11:08:28;;;;;;;1999.90;999.90;;;;;;;24.76;35.52;100638.44;8276146;28;20076;-77
2022/07/08 11:12:31;;;;;;;1999.90;999.90;;;;;;;24.66;33.88;100641.50;8254768;28;20034;-77
2022/07/08 11:16:34;;;;;;;1999.90;999.90;;;;;;;24.79;34.71;100641.84;8275084;28;20617;-77
2022/07/08 11:20:36;;;;;;;1999.90;999.90;;;;;;;24.96;34.27;100639.31;8270201;28;20061;-77
2022/07/08 11:24:38;;;;;;;;;;;;;;;24.88;33.13;100644.09;8269924;28;20050;-78
2022/07/08 11:28:40;;;;;;;1999.90;999.90;;;;;;;24.98;34.30;100631.28;8283153;28;19936;-78
2022/07/08 11:32:46;;;;;;;1999.90;999.90;;;;;;;25.31;34.69;100636.91;8275817;28;20711;-77
2022/07/08 11:36:54;;;;;;;1999.90;999.90;;;;;;;25.33;33.79;100640.38;8259286;28;20066;-77
2022/07/08 11:40:56;;;;;;;1999.90;999.90;;;;;;;25.43;32.95;100636.34;8274029;28;21373;-77
2022/07/08 11:45:04;;;;;;;1999.90;999.90;;;;;;;25.53;32.34;100642.97;8275200;28;20052;-77
2022/07/08 11:49:05;;;;;;;1999.90;999.90;;;;;;;25.34;32.19;100630.59;8277107;28;20156;-78
2022/07/08 11:53:21;;;;;;;1999.90;999.90;;;;;;;25.49;32.99;100627.22;8273903;28;20483;-78
2022/07/08 11:57:22;;;;;;;1999.90;999.90;;;;;;;25.38;32.42;100626.88;8260571;28;20874;-77
2022/07/08 12:01:25;;;;;;;1999.90;999.90;;;;;;;25.46;32.65;100622.91;8273271;28;20080;-78
2022/07/08 12:05:26;;;;;;;1999.90;999.90;;;;;;;25.60;32.56;100608.97;8275890;28;20140;-78
2022/07/08 12:09:29;;;;;;;;;;;;;;;25.34;31.87;100604.00;8272912;28;20132;-78
2022/07/08 12:13:42;;;;;;;1999.90;999.90;;;;;;;25.41;33.05;100590.34;8285475;28;19991;-77
2022/07/08 12:17:57;;;;;;;1999.90;999.90;;;;;;;25.75;32.50;100592.31;8273882;28;20050;-78
2022/07/08 12:22:04;;;;;;;1999.90;999.90;;;;;;;25.80;32.76;100584.97;8263214;28;20045;-78
2022/07/08 12:26:06;;;;;;;1999.90;999.90;;;;;;;25.92;31.79;100580.84;8270575;28;20049;-78
2022/07/08 12:30:10;;;;;;;1999.90;999.90;;;;;;;26.08;31.49;100589.81;8280320;28;20038;-77
2022/07/08 12:34:17;;;;;;;1999.90;999.90;;;;;;;25.73;30.97;100577.38;8254325;28;20081;-77
2022/07/08 12:38:23;;;;;;;1999.90;999.90;;;;;;;25.60;31.50;100567.25;8267320;28;20042;-77
2022/07/08 12:42:25;;;;;;;1999.90;999.90;;;;;;;25.54;31.45;100569.38;8275638;28;20121;-77
2022/07/08 12:46:28;;;;;;;1999.90;999.90;;;;;;;25.87;33.20;100557.13;8276975;28;20514;-78
2022/07/08 12:50:31;;;;;;;1999.90;999.90;;;;;;;25.89;32.41;100551.75;8271229;28;20049;-77
2022/07/08 12:54:34;;;;;;;1999.90;999.90;;;;;;;25.87;31.47;100554.47;8268339;28;20156;-77
2022/07/08 12:58:36;;;;;;;1999.90;999.90;;;;;;;25.89;31.53;100555.25;8274476;28;20077;-78
2022/07/08 13:02:39;;;;;;;1999.90;999.90;;;;;;;26.13;31.57;100552.31;8278503;28;20076;-78
2022/07/08 13:06:41;;;;;;;1999.90;999.90;;;;;;;26.21;30.87;100558.09;8279288;28;20049;-77
2022/07/08 13:10:43;;;;;;;1999.90;999.90;;;;;;;26.19;30.39;100549.31;8286745;28;20056;-77
2022/07/08 13:14:44;;;;;;;1999.90;999.90;;;;;;;26.05;30.34;100544.72;8279058;28;20717;-78
2022/07/08 13:18:46;;;;;;;1999.90;999.90;;;;;;;26.03;30.01;100541.28;8264562;28;20042;-77
2022/07/08 13:22:47;;;;;;;1999.90;999.90;;;;;;;25.96;30.13;100542.50;8289824;28;20124;-77
2022/07/08 13:26:49;;;;;;;1999.90;999.90;;;;;;;25.98;31.52;100547.75;8272884;28;20050;-77
2022/07/08 13:30:51;;;;;;;1999.90;999.90;;;;;;;26.24;32.11;100536.66;8305031;28;20144;-77
2022/07/08 13:34:52;;;;;;;1999.90;999.90;;;;;;;26.44;31.59;100541.00;8293010;28;20096;-77
2022/07/08 13:39:08;;;;;;;1999.90;999.90;;;;;;;26.62;31.04;100537.38;8268222;28;20129;-77
2022/07/08 13:43:10;;;;;;;1999.90;999.90;;;;;;;26.83;31.56;100538.03;8287235;28;20045;-77
2022/07/08 13:47:11;;;;;;;1999.90;999.90;;;;;;;26.93;30.20;100528.63;8276815;28;20372;-77
2022/07/08 13:51:12;;;;;;;;;;;;;;;27.08;30.70;100521.59;8286763;28;20060;-77
2022/07/08 13:55:14;;;;;;;1999.90;999.90;;;;;;;27.22;30.03;100523.53;8274050;28;19964;-77
2022/07/08 13:59:15;;;;;;;1999.90;999.90;;;;;;;27.22;29.56;100527.06;8299088;28;20573;-77
2022/07/08 14:03:17;;;;;;;1999.90;999.90;;;;;;;27.31;29.88;100529.22;8296310;28;20422;-78
2022/07/08 14:07:18;;;;;;;1999.90;999.90;;;;;;;27.21;30.00;100520.00;8305856;28;20049;-78
2022/07/08 14:11:20;;;;;;;1999.90;999.90;;;;;;;27.18;29.73;100522.84;8288573;28;20041;-77
2022/07/08 14:15:22;;;;;;;1999.90;999.90;;;;;;;27.17;30.49;100523.78;8304249;28;20116;-78
2022/07/08 14:19:23;;;;;;;;;;;;;;;27.23;30.57;100514.56;8319821;28;20070;-77
2022/07/08 14:23:25;;;;;;;1999.90;999.90;;;;;;;27.48;30.60;100514.09;8300474;28;20016;-77
2022/07/08 14:27:26;;;;;;;1999.90;999.90;;;;;;;27.52;30.47;100512.97;8294058;28;20073;-77
2022/07/08 14:31:28;;;;;;;;;;;;;;;27.60;30.33;100508.91;8294697;28;20474;-78
2022/07/08 14:35:30;;;;;;;1999.90;999.90;;;;;;;27.74;30.45;100518.81;8284394;28;19931;-77
2022/07/08 14:39:32;;;;;;;1999.90;999.90;;;;;;;27.66;29.13;100505.94;8298033;28;20053;-77
2022/07/08 14:43:33;;;;;;;1999.90;999.90;;;;;;;27.68;29.34;100504.03;8298863;28;20037;-78
2022/07/08 14:47:35;;;;;;;1999.90;999.90;;;;;;;27.82;29.89;100492.53;8289900;28;20045;-78
2022/07/08 14:51:36;;;;;;;;;;;;;;;27.95;30.26;100493.53;8298265;28;20049;-78
2022/07/08 14:55:38;;;;;;;1999.90;999.90;;;;;;;27.95;29.67;100488.19;8293472;28;20377;-78
2022/07/08 14:59:39;;;;;;;;;;;;;;;27.87;29.05;100479.78;8309265;28;20627;-78
2022/07/08 15:03:40;;;;;;;1999.90;999.90;;;;;;;27.91;29.04;100472.47;8291678;28;19935;-77
2022/07/08 15:07:42;;;;;;;;;;;;;;;28.07;28.97;100478.63;8274272;28;20104;-77
2022/07/08 15:11:43;;;;;;;1999.90;999.90;;;;;;;28.15;29.55;100468.31;8279124;28;19953;-77
2022/07/08 15:15:45;;;;;;;;;;;;;;;28.29;29.35;100465.72;8272780;28;20049;-79
2022/07/08 15:19:47;;;;;;;1999.90;999.90;;;;;;;28.39;28.98;100460.69;8272002;28;19975;-77
2022/07/08 15:23:51;;;;;;;;;;;;;;;28.29;29.32;100464.84;8268147;28;20144;-78
2022/07/08 15:27:53;;;;;;;1999.90;999.90;;;;;;;28.23;29.10;100455.38;8285409;28;19960;-78
2022/07/08 15:31:54;;;;;;;1999.90;999.90;;;;;;;28.28;28.96;100452.44;8274889;28;20041;-77
2022/07/08 15:35:56;;;;;;;;;;;;;;;28.39;29.35;100454.47;8280427;28;20065;-78
2022/07/08 15:39:59;;;;;;;1999.90;999.90;;;;;;;28.31;28.47;100444.25;8266314;28;20052;-78
2022/07/08 15:44:01;;;;;;;1999.90;999.90;;;;;;;28.19;28.51;100432.47;8274925;28;20073;-77
2022/07/08 15:48:22;;;;;;;1999.90;999.90;;;;;;;28.29;29.21;100438.13;8276614;28;20140;-77
2022/07/08 15:52:24;;;;;;;;;;;;;;;28.38;29.21;100440.25;8275064;28;20694;-77
2022/07/08 15:56:25;;;;;;;1999.90;999.90;;;;;;;28.28;28.32;100433.75;8272099;28;19964;-77
2022/07/08 16:00:27;;;;;;;;;;;;;;;28.19;28.52;100437.81;8279462;28;20081;-78
2022/07/08 16:04:29;;;;;;;1999.90;999.90;;;;;;;28.23;29.89;100427.81;8280190;28;19929;-78
2022/07/08 16:08:30;;;;;;;1999.90;999.90;;;;;;;28.20;29.22;100426.19;8273084;28;20046;-77
2022/07/08 16:12:33;;;;;;;;;;;;;;;28.24;30.07;100429.53;8284783;28;20045;-77
2022/07/08 16:16:36;;;;;;;1999.90;999.90;;;;;;;28.32;28.61;100421.06;8291512;28;20008;-77
2022/07/08 16:20:38;;;;;;;1999.90;999.90;;;;;;;28.50;29.97;100419.91;8272906;28;20668;-77
2022/07/08 16:24:39;;;;;;;;;;;;;;;28.58;28.61;100426.53;8273944;28;20133;-77
2022/07/08 16:28:41;;;;;;;1999.90;999.90;;;;;;;28.40;28.25;100421.47;8282968;28;20016;-77
2022/07/08 16:32:43;;;;;;;1999.90;999.90;;;;;;;28.39;28.51;100417.94;8273209;28;20124;-77
2022/07/08 16:36:44;;;;;;;;;;;;;;;28.16;28.17;100416.63;8275303;28;20170;-77
2022/07/08 16:40:45;;;;;;;1999.90;999.90;;;;;;;27.88;28.08;100414.78;8271099;28;20004;-77
2022/07/08 16:44:47;;;;;;;;;;;;;;;27.40;28.82;100413.13;8274988;28;20042;-77
2022/07/08 16:48:48;;;;;;;1999.90;999.90;;;;;;;27.01;30.16;100418.91;8267365;28;19929;-77
2022/07/08 16:52:50;;;;;;;;;;;;;;;26.75;30.02;100418.53;8272305;28;20142;-77
2022/07/08 16:56:51;;;;;;;1999.90;999.90;;;;;;;26.44;30.96;100416.66;8263902;28;20036;-77
2022/07/08 17:00:53;;;;;;;;;;;;;;;26.20;31.80;100420.56;8259075;28;20741;-77
2022/07/08 17:04:54;;;;;;;1999.90;999.90;;;;;;;25.91;32.24;100422.09;8268228;28;20017;-77
2022/07/08 17:08:56;;;;;;;;;;;;;;;25.76;32.95;100418.41;8268526;28;20057;-77
2022/07/08 17:12:57;;;;;;;1999.90;999.90;;;;;;;25.51;32.98;100417.91;8266268;28;19933;-77
2022/07/08 17:16:59;;;;;;;1999.90;999.90;;;;;;;25.34;33.24;100415.22;8266852;28;20502;-77
2022/07/08 17:21:01;;;;;;;;;;;;;;;25.23;33.61;100418.38;8270245;28;20077;-77
2022/07/08 17:25:02;;;;;;;1999.90;999.90;;;;;;;25.15;33.61;100417.91;8257064;28;19925;-77
2022/07/08 17:33:24;;;;;;;1999.90;999.90;;;;;;;24.94;34.63;100417.06;8288708;28;20533;-76
2022/07/08 17:37:26;;;;;;;1999.90;999.90;;;;;;;24.79;34.48;100421.34;8288568;28;20049;-77
2022/07/08 17:41:27;;;;;;;1999.90;999.90;;;;;;;24.57;36.14;100421.44;8286873;28;20584;-77
2022/07/08 17:45:30;;;;;;;1999.90;999.90;;;;;;;24.46;37.13;100418.44;8294636;28;20045;-76
2022/07/08 17:49:40;;;;;;;1999.90;999.90;;;;;;;24.36;36.83;100417.97;8273196;28;20057;-77
2022/07/08 17:53:42;;;;;;;1999.90;999.90;;;;;;;24.27;36.32;100412.19;8290829;28;20054;-77
2022/07/08 17:57:43;;;;;;;1999.90;999.90;;;;;;;24.17;35.81;100410.84;8271420;28;20137;-77
2022/07/08 18:01:45;;;;;;;1999.90;999.90;;;;;;;24.09;37.12;100416.50;8281436;28;20129;-77
2022/07/08 18:05:47;;;;;;;1999.90;999.90;;;;;;;23.95;38.04;100419.75;8283162;28;20350;-77